createdAt,value
2023-04-17T00:02:41.824Z,92.78
2023-04-17T00:07:49.613Z,92.77
2023-04-17T00:12:56.102Z,93.03
2023-04-17T00:18:04.102Z,92.91
2023-04-17T00:23:10.733Z,92.98
2023-04-17T00:28:16.946Z,93.30
2023-04-17T00:33:25.195Z,93.48
2023-04-17T00:38:31.905Z,93.99
2023-04-17T00:43:38.684Z,94.24
2023-04-17T00:48:46.689Z,93.87
2023-04-17T00:53:53.326Z,93.95
2023-04-17T00:59:00.699Z,93.88
2023-04-17T01:04:10.479Z,94.09
2023-04-17T01:09:17.536Z,93.70
2023-04-17T01:14:24.074Z,93.96
2023-04-17T01:19:33.107Z,94.06
2023-04-17T01:24:40.907Z,94.38
2023-04-17T01:29:48.625Z,94.54
2023-04-17T01:34:56.125Z,95.04
2023-04-17T01:40:07.357Z,95.13
2023-04-17T01:45:14.293Z,95.60
2023-04-17T01:50:21.171Z,95.73
2023-04-17T01:55:29.201Z,95.70
2023-04-17T02:00:35.517Z,96.54
2023-04-17T02:05:42.042Z,97.19
2023-04-17T02:10:50.160Z,97.69
2023-04-17T02:15:57.489Z,98.24
2023-04-17T02:21:27.904Z,98.23
2023-04-17T02:26:37.098Z,98.91
2023-04-17T02:31:44.938Z,99.01
2023-04-17T02:36:51.755Z,98.83
2023-04-17T02:42:02.449Z,99.16
2023-04-17T02:47:09.264Z,99.40
2023-04-17T02:52:15.637Z,99.46
2023-04-17T02:57:23.451Z,99.65
2023-04-17T03:02:32.363Z,99.59
2023-04-17T03:07:38.769Z,99.70
2023-04-17T03:12:46.718Z,99.80
2023-04-17T03:17:54.245Z,99.89
2023-04-17T03:23:01.005Z,100.00
2023-04-17T03:28:08.851Z,100.00
2023-04-17T03:33:16.702Z,100.00
2023-04-17T03:38:24.208Z,100.00
2023-04-17T03:43:33.490Z,100.00
2023-04-17T03:48:39.998Z,100.00
2023-04-17T03:53:46.626Z,100.00
2023-04-17T03:58:55.360Z,100.00
2023-04-17T04:04:03.174Z,100.00
2023-04-17T04:09:10.868Z,100.00
2023-04-17T04:14:18.742Z,100.00
2023-04-17T04:19:28.108Z,100.00
2023-04-17T04:24:35.576Z,100.00
2023-04-17T04:29:45.974Z,100.00
2023-04-17T04:34:53.476Z,100.00
2023-04-17T04:40:04.834Z,100.00
2023-04-17T04:45:13.560Z,100.00
2023-04-17T04:50:22.272Z,100.00
2023-04-17T04:55:30.938Z,100.00
2023-04-17T05:00:40.068Z,100.00
2023-04-17T05:05:50.794Z,100.00
2023-04-17T05:10:59.751Z,100.00
2023-04-17T05:16:08.627Z,100.00
2023-04-17T05:21:14.930Z,100.00
2023-04-17T05:26:22.989Z,100.00
2023-04-17T05:31:32.931Z,100.00
2023-04-17T05:36:43.103Z,100.00
2023-04-17T05:41:49.688Z,100.00
2023-04-17T05:47:00.404Z,100.00
2023-04-17T05:52:07.470Z,100.00
2023-04-17T05:57:18.515Z,100.00
2023-04-17T06:02:26.601Z,100.00
2023-04-17T06:07:36.154Z,100.00
2023-04-17T06:12:43.136Z,100.00
2023-04-17T06:17:53.091Z,100.00
2023-04-17T06:22:59.735Z,100.00
2023-04-17T06:28:06.765Z,100.00
2023-04-17T06:33:15.224Z,100.00
2023-04-17T06:38:22.857Z,100.00
2023-04-17T06:43:29.215Z,100.00
2023-04-17T06:48:37.847Z,100.00
2023-04-17T06:53:44.452Z,100.00
2023-04-17T06:58:50.950Z,99.69
2023-04-17T07:03:59.330Z,98.70
2023-04-17T07:09:06.020Z,99.41
2023-04-17T07:14:12.999Z,98.92
2023-04-17T07:19:21.445Z,99.04
2023-04-17T07:24:28.158Z,98.95
2023-04-17T07:29:35.821Z,98.99
2023-04-17T07:34:43.747Z,98.99
2023-04-17T07:39:51.673Z,97.93
2023-04-17T07:44:59.313Z,97.48
2023-04-17T07:50:08.944Z,97.24
2023-04-17T07:55:15.266Z,96.54
2023-04-17T08:00:22.241Z,96.81
2023-04-17T08:05:31.203Z,97.62
2023-04-17T08:10:37.770Z,94.94
2023-04-17T08:15:44.322Z,94.01
2023-04-17T08:20:52.744Z,94.00
2023-04-17T08:25:58.946Z,92.86
2023-04-17T08:31:05.345Z,93.40
2023-04-17T08:36:14.650Z,92.15
2023-04-17T08:41:25.885Z,90.71
2023-04-17T08:46:34.972Z,91.80
2023-04-17T08:51:43.496Z,90.91
2023-04-17T08:56:50.025Z,90.22
2023-04-17T09:02:04.401Z,89.48
2023-04-17T09:07:14.131Z,89.17
2023-04-17T09:12:21.505Z,89.00
2023-04-17T09:17:38.094Z,88.61
2023-04-17T09:22:46.857Z,87.54
2023-04-17T09:27:53.204Z,87.24
2023-04-17T09:33:10.264Z,87.24
2023-04-17T09:38:18.557Z,87.38
2023-04-17T09:43:25.124Z,85.37
2023-04-17T09:48:31.764Z,85.03
2023-04-17T09:53:40.318Z,84.18
2023-04-17T09:58:46.786Z,85.34
2023-04-17T10:03:53.455Z,85.63
2023-04-17T10:09:02.244Z,85.09
2023-04-17T10:14:17.150Z,84.89
2023-04-17T10:19:31.326Z,85.46
2023-04-17T10:24:39.632Z,85.17
2023-04-17T10:29:55.501Z,84.08
2023-04-17T10:35:04.432Z,83.59
2023-04-17T10:40:15.324Z,83.00
2023-04-17T10:45:22.250Z,83.68
2023-04-17T10:50:31.158Z,82.06
2023-04-17T10:55:51.563Z,81.14
2023-04-17T11:00:58.103Z,81.59
2023-04-17T11:06:05.748Z,80.08
2023-04-17T11:11:15.471Z,80.45
2023-04-17T11:16:23.687Z,80.89
2023-04-17T11:21:30.117Z,80.56
2023-04-17T11:26:45.719Z,79.11
2023-04-17T11:31:54.986Z,79.39
2023-04-17T11:37:03.535Z,77.71
2023-04-17T11:42:11.608Z,77.43
2023-04-17T11:47:21.261Z,77.48
2023-04-17T11:52:31.150Z,77.02
2023-04-17T11:57:45.281Z,75.26
2023-04-17T12:02:52.471Z,75.98
2023-04-17T12:08:04.723Z,75.07
2023-04-17T12:13:13.812Z,75.88
2023-04-17T12:18:20.072Z,75.51
2023-04-17T12:23:27.030Z,73.04
2023-04-17T12:28:35.028Z,72.34
2023-04-17T12:33:41.873Z,72.61
2023-04-17T12:38:48.358Z,72.24
2023-04-17T12:44:00.435Z,72.99
2023-04-17T12:49:07.554Z,70.52
2023-04-17T12:54:14.589Z,69.57
2023-04-17T12:59:22.808Z,72.21
2023-04-17T13:04:29.665Z,70.71
2023-04-17T13:09:36.535Z,72.40
2023-04-17T13:14:45.056Z,70.54
2023-04-17T13:19:51.503Z,69.36
2023-04-17T13:24:57.865Z,69.89
2023-04-17T13:30:06.797Z,69.86
2023-04-17T13:35:13.871Z,69.68
2023-04-17T13:40:20.318Z,70.63
2023-04-17T13:45:28.218Z,69.93
2023-04-17T13:50:34.664Z,70.14
2023-04-17T13:55:41.251Z,71.27
2023-04-17T14:00:49.261Z,71.92
2023-04-17T14:05:56.991Z,70.97
2023-04-17T14:11:04.678Z,70.58
2023-04-17T14:16:12.915Z,69.75
2023-04-17T14:21:22.186Z,70.89
2023-04-17T14:26:28.700Z,72.99
2023-04-17T14:31:36.856Z,74.16
2023-04-17T14:36:43.858Z,74.83
2023-04-17T14:41:50.729Z,74.82
2023-04-17T14:46:58.885Z,75.07
2023-04-17T14:52:05.472Z,75.62
2023-04-17T14:57:12.296Z,75.08
2023-04-17T15:02:20.430Z,75.25
2023-04-17T15:07:26.995Z,75.56
2023-04-17T15:12:33.548Z,75.92
2023-04-17T15:17:42.871Z,75.60
2023-04-17T15:22:52.795Z,75.04
2023-04-17T15:27:59.046Z,74.23
2023-04-17T15:33:10.531Z,73.37
2023-04-17T15:38:16.914Z,72.67
2023-04-17T15:43:23.603Z,72.45
2023-04-17T15:48:31.659Z,72.71
2023-04-17T15:53:38.171Z,73.15
2023-04-17T15:58:45.861Z,73.15
2023-04-17T16:03:54.694Z,72.11
2023-04-17T16:09:01.961Z,70.02
2023-04-17T16:14:09.002Z,70.23
2023-04-17T16:19:17.115Z,69.60
2023-04-17T16:24:23.788Z,70.54
2023-04-17T16:29:30.798Z,70.70
2023-04-17T16:34:39.280Z,71.24
2023-04-17T16:39:46.120Z,71.01
2023-04-17T16:44:52.934Z,71.21
2023-04-17T16:50:01.111Z,70.95
2023-04-17T16:55:11.272Z,71.64
2023-04-17T17:00:19.545Z,71.92
2023-04-17T17:05:28.281Z,71.49
2023-04-17T17:10:35.108Z,72.21
2023-04-17T17:15:42.326Z,72.40
2023-04-17T17:20:51.220Z,72.06
2023-04-17T17:25:57.812Z,72.36
2023-04-17T17:31:06.242Z,71.14
2023-04-17T17:36:16.556Z,70.73
2023-04-17T17:41:23.700Z,71.17
2023-04-17T17:46:30.979Z,71.84
2023-04-17T17:51:39.729Z,71.93
2023-04-17T17:56:48.203Z,72.58
2023-04-17T18:01:55.715Z,72.56
2023-04-17T18:07:06.936Z,72.77
2023-04-17T18:12:19.359Z,73.35
2023-04-17T18:17:28.239Z,73.75
2023-04-17T18:22:38.866Z,73.64
2023-04-17T18:27:46.952Z,73.54
2023-04-17T18:32:57.107Z,72.90
2023-04-17T18:38:07.719Z,73.07
2023-04-17T18:43:16.035Z,73.15
2023-04-17T18:48:27.990Z,72.82
2023-04-17T18:53:37.860Z,72.80
2023-04-17T18:58:47.673Z,72.97
2023-04-17T19:03:55.911Z,72.66
2023-04-17T19:09:12.409Z,73.17
2023-04-17T19:14:20.688Z,72.96
2023-04-17T19:19:33.280Z,72.82
2023-04-17T19:24:43.261Z,73.03
2023-04-17T19:29:51.847Z,73.29
2023-04-17T19:35:03.550Z,73.62
2023-04-17T19:40:24.455Z,74.20
2023-04-17T19:45:36.563Z,74.28
2023-04-17T19:50:45.276Z,74.19
2023-04-17T19:55:55.694Z,74.60
2023-04-17T20:01:03.940Z,74.47
2023-04-17T20:06:13.289Z,75.41
2023-04-17T20:11:24.361Z,75.63
2023-04-17T20:16:32.507Z,75.67
2023-04-17T20:21:43.916Z,76.12
2023-04-17T20:26:53.745Z,76.45
2023-04-17T20:32:03.615Z,76.09
2023-04-17T20:37:10.901Z,77.05
2023-04-17T20:42:19.749Z,77.10
2023-04-17T20:47:26.650Z,77.35
2023-04-17T20:52:33.841Z,77.75
2023-04-17T20:57:42.180Z,77.98
2023-04-17T21:02:48.802Z,77.74
2023-04-17T21:07:58.057Z,78.30
2023-04-17T21:13:06.438Z,78.85
2023-04-17T21:18:12.894Z,79.14
2023-04-17T21:23:19.340Z,79.43
2023-04-17T21:28:27.244Z,79.49
2023-04-17T21:33:33.563Z,79.69
2023-04-17T21:38:40.869Z,80.22
2023-04-17T21:43:49.353Z,80.26
2023-04-17T21:48:56.240Z,80.56
2023-04-17T21:54:02.807Z,80.49
2023-04-17T21:59:10.982Z,80.64
2023-04-17T22:04:17.290Z,80.96
2023-04-17T22:09:24.394Z,80.84
2023-04-17T22:14:32.382Z,80.65
2023-04-17T22:19:38.817Z,81.18
2023-04-17T22:25:20.818Z,81.21
2023-04-17T22:31:05.383Z,81.32
2023-04-17T22:36:49.801Z,81.41
2023-04-17T22:42:50.452Z,81.35
2023-04-17T22:49:11.593Z,82.09
2023-04-17T22:54:36.340Z,82.30
2023-04-17T23:00:18.515Z,82.51
2023-04-17T23:06:02.085Z,82.67
2023-04-17T23:11:27.153Z,82.55
2023-04-17T23:16:33.769Z,82.94
2023-04-17T23:21:41.855Z,83.33
2023-04-17T23:26:49.063Z,84.23
2023-04-17T23:31:55.728Z,84.74
2023-04-17T23:37:03.644Z,86.26
2023-04-17T23:42:10.036Z,87.15
2023-04-17T23:47:16.391Z,88.04
2023-04-17T23:52:24.076Z,87.80
2023-04-17T23:57:34.878Z,87.77
